sensor_id;sensor_type;location;lat;lon;timestamp;pressure;altitude;pressure_sealevel;temperature;humidity
71621;BME280;59471;42.254;23.102;2023-06-22T00:00:55;96270.69;;;18.87;74.55
71621;BME280;59471;42.254;23.102;2023-06-22T00:03:22;96265.31;;;18.68;75.10
71621;BME280;59471;42.254;23.102;2023-06-22T00:05:49;96279.59;;;18.67;75.46
71621;BME280;59471;42.254;23.102;2023-06-22T00:08:16;96282.44;;;18.72;75.40
71621;BME280;59471;42.254;23.102;2023-06-22T00:10:43;96275.25;;;18.80;74.68
71621;BME280;59471;42.254;23.102;2023-06-22T00:13:10;96271.66;;;18.92;74.65
71621;BME280;59471;42.254;23.102;2023-06-22T00:15:37;96272.91;;;18.90;74.19
71621;BME280;59471;42.254;23.102;2023-06-22T00:18:04;96275.34;;;18.66;75.08
71621;BME280;59471;42.254;23.102;2023-06-22T00:20:31;96265.09;;;18.70;74.88
71621;BME280;59471;42.254;23.102;2023-06-22T00:22:59;96264.78;;;18.85;74.49
71621;BME280;59471;42.254;23.102;2023-06-22T00:25:25;96257.53;;;18.48;75.59
71621;BME280;59471;42.254;23.102;2023-06-22T00:27:51;96260.75;;;18.50;75.80
71621;BME280;59471;42.254;23.102;2023-06-22T00:30:17;96256.66;;;18.29;76.19
71621;BME280;59471;42.254;23.102;2023-06-22T00:32:44;96252.00;;;18.50;75.50
71621;BME280;59471;42.254;23.102;2023-06-22T00:35:12;96253.47;;;18.46;76.11
71621;BME280;59471;42.254;23.102;2023-06-22T00:37:38;96243.53;;;18.60;75.72
71621;BME280;59471;42.254;23.102;2023-06-22T00:40:08;96247.22;;;18.59;75.26
71621;BME280;59471;42.254;23.102;2023-06-22T00:42:40;96248.28;;;18.33;76.52
71621;BME280;59471;42.254;23.102;2023-06-22T00:45:07;96251.66;;;18.15;76.44
71621;BME280;59471;42.254;23.102;2023-06-22T00:47:36;96245.22;;;18.04;77.46
71621;BME280;59471;42.254;23.102;2023-06-22T00:50:05;96238.69;;;18.00;77.57
71621;BME280;59471;42.254;23.102;2023-06-22T00:52:32;96239.41;;;17.89;78.13
71621;BME280;59471;42.254;23.102;2023-06-22T00:55:01;96241.34;;;18.00;77.57
71621;BME280;59471;42.254;23.102;2023-06-22T00:57:27;96244.19;;;18.05;77.64
71621;BME280;59471;42.254;23.102;2023-06-22T00:59:54;96237.59;;;17.82;78.03
71621;BME280;59471;42.254;23.102;2023-06-22T01:02:20;96239.22;;;17.83;78.29
71621;BME280;59471;42.254;23.102;2023-06-22T01:04:45;96239.22;;;17.83;78.30
71621;BME280;59471;42.254;23.102;2023-06-22T01:10:23;96246.53;;;17.88;77.90
71621;BME280;59471;42.254;23.102;2023-06-22T01:12:57;96249.44;;;17.73;79.05
71621;BME280;59471;42.254;23.102;2023-06-22T01:15:39;96235.66;;;17.58;78.81
71621;BME280;59471;42.254;23.102;2023-06-22T01:18:11;96255.78;;;17.72;78.74
71621;BME280;59471;42.254;23.102;2023-06-22T01:20:39;96251.75;;;17.63;78.78
71621;BME280;59471;42.254;23.102;2023-06-22T01:25:49;96253.41;;;17.51;79.35
71621;BME280;59471;42.254;23.102;2023-06-22T01:31:12;96259.78;;;17.36;79.88
71621;BME280;59471;42.254;23.102;2023-06-22T01:33:43;96257.31;;;17.42;79.77
71621;BME280;59471;42.254;23.102;2023-06-22T01:36:10;96261.88;;;17.21;80.22
71621;BME280;59471;42.254;23.102;2023-06-22T01:38:38;96260.91;;;17.60;78.90
71621;BME280;59471;42.254;23.102;2023-06-22T01:41:04;96261.31;;;17.64;78.73
71621;BME280;59471;42.254;23.102;2023-06-22T01:43:31;96261.78;;;17.48;79.10
71621;BME280;59471;42.254;23.102;2023-06-22T01:45:59;96269.16;;;17.32;79.43
71621;BME280;59471;42.254;23.102;2023-06-22T01:48:26;96260.16;;;17.40;79.41
71621;BME280;59471;42.254;23.102;2023-06-22T01:50:52;96257.09;;;17.43;78.85
71621;BME280;59471;42.254;23.102;2023-06-22T01:53:21;96264.25;;;17.43;79.63
71621;BME280;59471;42.254;23.102;2023-06-22T01:55:47;96263.81;;;17.46;79.02
71621;BME280;59471;42.254;23.102;2023-06-22T01:58:13;96263.72;;;17.79;77.91
71621;BME280;59471;42.254;23.102;2023-06-22T02:00:41;96281.53;;;17.97;78.47
71621;BME280;59471;42.254;23.102;2023-06-22T02:03:26;96286.53;;;17.73;78.91
71621;BME280;59471;42.254;23.102;2023-06-22T02:06:06;96280.84;;;17.70;79.11
71621;BME280;59471;42.254;23.102;2023-06-22T02:08:41;96282.03;;;17.74;78.11
71621;BME280;59471;42.254;23.102;2023-06-22T02:11:09;96281.19;;;17.87;78.27
71621;BME280;59471;42.254;23.102;2023-06-22T02:13:36;96290.16;;;17.86;77.90
71621;BME280;59471;42.254;23.102;2023-06-22T02:16:03;96292.88;;;17.59;79.06
71621;BME280;59471;42.254;23.102;2023-06-22T02:18:29;96289.25;;;17.60;79.42
71621;BME280;59471;42.254;23.102;2023-06-22T02:20:55;96288.41;;;17.66;78.86
71621;BME280;59471;42.254;23.102;2023-06-22T02:23:20;96283.88;;;17.80;78.64
71621;BME280;59471;42.254;23.102;2023-06-22T02:25:46;96293.34;;;17.56;79.14
71621;BME280;59471;42.254;23.102;2023-06-22T02:28:11;96294.69;;;17.65;79.16
71621;BME280;59471;42.254;23.102;2023-06-22T02:30:37;96294.34;;;17.55;79.45
71621;BME280;59471;42.254;23.102;2023-06-22T02:33:02;96289.03;;;17.55;79.73
71621;BME280;59471;42.254;23.102;2023-06-22T02:35:29;96294.75;;;17.52;80.00
71621;BME280;59471;42.254;23.102;2023-06-22T02:38:01;96295.19;;;17.49;80.13
71621;BME280;59471;42.254;23.102;2023-06-22T02:40:28;96288.63;;;17.58;79.56
71621;BME280;59471;42.254;23.102;2023-06-22T02:42:55;96281.72;;;17.57;79.75
71621;BME280;59471;42.254;23.102;2023-06-22T02:45:23;96287.44;;;17.54;80.01
71621;BME280;59471;42.254;23.102;2023-06-22T02:47:49;96290.91;;;17.48;79.89
71621;BME280;59471;42.254;23.102;2023-06-22T02:50:15;96291.13;;;17.40;80.33
71621;BME280;59471;42.254;23.102;2023-06-22T02:52:40;96285.63;;;17.48;80.35
71621;BME280;59471;42.254;23.102;2023-06-22T02:55:06;96287.91;;;17.37;80.11
71621;BME280;59471;42.254;23.102;2023-06-22T02:57:33;96299.78;;;17.02;81.90
71621;BME280;59471;42.254;23.102;2023-06-22T02:59:59;96297.97;;;17.09;81.74
71621;BME280;59471;42.254;23.102;2023-06-22T03:02:24;96295.44;;;17.41;80.74
71621;BME280;59471;42.254;23.102;2023-06-22T03:04:51;96296.53;;;17.00;81.97
71621;BME280;59471;42.254;23.102;2023-06-22T03:07:19;96300.84;;;16.87;83.31
71621;BME280;59471;42.254;23.102;2023-06-22T03:09:45;96294.88;;;17.05;82.59
71621;BME280;59471;42.254;23.102;2023-06-22T03:12:11;96300.59;;;17.09;82.63
71621;BME280;59471;42.254;23.102;2023-06-22T03:14:37;96294.50;;;16.95;83.11
71621;BME280;59471;42.254;23.102;2023-06-22T03:17:04;96304.88;;;16.83;83.34
71621;BME280;59471;42.254;23.102;2023-06-22T03:19:31;96298.34;;;17.12;82.80
71621;BME280;59471;42.254;23.102;2023-06-22T03:21:58;96307.06;;;17.26;82.88
71621;BME280;59471;42.254;23.102;2023-06-22T03:24:25;96295.66;;;17.32;83.15
71621;BME280;59471;42.254;23.102;2023-06-22T03:26:50;96304.63;;;17.31;83.55
71621;BME280;59471;42.254;23.102;2023-06-22T03:29:16;96311.47;;;17.46;82.91
71621;BME280;59471;42.254;23.102;2023-06-22T03:31:41;96311.88;;;17.56;82.32
71621;BME280;59471;42.254;23.102;2023-06-22T03:34:07;96323.22;;;17.70;83.03
71621;BME280;59471;42.254;23.102;2023-06-22T03:36:32;96318.53;;;17.78;81.66
71621;BME280;59471;42.254;23.102;2023-06-22T03:38:58;96318.72;;;17.70;82.36
71621;BME280;59471;42.254;23.102;2023-06-22T03:41:23;96328.91;;;17.73;82.08
71621;BME280;59471;42.254;23.102;2023-06-22T03:43:49;96334.81;;;17.75;82.29
71621;BME280;59471;42.254;23.102;2023-06-22T03:46:14;96335.50;;;17.51;83.57
71621;BME280;59471;42.254;23.102;2023-06-22T03:48:40;96340.75;;;17.64;82.79
71621;BME280;59471;42.254;23.102;2023-06-22T03:51:05;96340.41;;;17.47;82.77
71621;BME280;59471;42.254;23.102;2023-06-22T03:53:31;96341.97;;;17.61;83.11
71621;BME280;59471;42.254;23.102;2023-06-22T03:55:56;96345.03;;;17.72;82.84
71621;BME280;59471;42.254;23.102;2023-06-22T03:58:22;96357.66;;;17.70;83.34
71621;BME280;59471;42.254;23.102;2023-06-22T04:00:51;96360.25;;;17.90;83.66
71621;BME280;59471;42.254;23.102;2023-06-22T04:03:17;96365.97;;;17.87;83.26
71621;BME280;59471;42.254;23.102;2023-06-22T04:05:47;96362.69;;;17.91;83.61
71621;BME280;59471;42.254;23.102;2023-06-22T04:08:13;96361.81;;;18.04;83.13
71621;BME280;59471;42.254;23.102;2023-06-22T04:10:39;96362.28;;;17.94;83.75
71621;BME280;59471;42.254;23.102;2023-06-22T04:13:05;96361.81;;;18.04;83.44
71621;BME280;59471;42.254;23.102;2023-06-22T04:15:31;96358.22;;;17.92;84.10
71621;BME280;59471;42.254;23.102;2023-06-22T04:17:56;96352.22;;;18.03;83.60
71621;BME280;59471;42.254;23.102;2023-06-22T04:20:22;96351.97;;;18.18;83.08
71621;BME280;59471;42.254;23.102;2023-06-22T04:22:54;96348.69;;;18.22;83.72
71621;BME280;59471;42.254;23.102;2023-06-22T04:25:20;96360.41;;;18.40;83.80
71621;BME280;59471;42.254;23.102;2023-06-22T04:27:46;96364.41;;;18.49;83.05
71621;BME280;59471;42.254;23.102;2023-06-22T04:30:12;96363.13;;;18.58;82.88
71621;BME280;59471;42.254;23.102;2023-06-22T04:32:40;96359.97;;;18.43;83.74
71621;BME280;59471;42.254;23.102;2023-06-22T04:35:06;96355.44;;;18.50;83.59
71621;BME280;59471;42.254;23.102;2023-06-22T04:37:33;96360.66;;;18.63;83.34
71621;BME280;59471;42.254;23.102;2023-06-22T04:39:59;96362.22;;;18.78;82.48
71621;BME280;59471;42.254;23.102;2023-06-22T04:42:28;96374.44;;;18.79;82.85
71621;BME280;59471;42.254;23.102;2023-06-22T04:44:53;96362.22;;;18.78;82.61
71621;BME280;59471;42.254;23.102;2023-06-22T04:47:19;96368.44;;;18.90;82.74
71621;BME280;59471;42.254;23.102;2023-06-22T04:49:45;96356.41;;;18.87;82.74
71621;BME280;59471;42.254;23.102;2023-06-22T04:52:12;96368.94;;;19.05;81.68
71621;BME280;59471;42.254;23.102;2023-06-22T04:54:39;96356.28;;;19.26;80.12
71621;BME280;59471;42.254;23.102;2023-06-22T04:57:13;96365.66;;;19.28;80.60
71621;BME280;59471;42.254;23.102;2023-06-22T04:59:41;96365.53;;;19.16;81.29
71621;BME280;59471;42.254;23.102;2023-06-22T05:02:08;96364.88;;;19.46;79.96
71621;BME280;59471;42.254;23.102;2023-06-22T05:04:34;96360.41;;;19.65;80.30
71621;BME280;59471;42.254;23.102;2023-06-22T05:07:04;96364.59;;;19.73;79.72
71621;BME280;59471;42.254;23.102;2023-06-22T05:09:30;96366.34;;;19.97;79.35
71621;BME280;59471;42.254;23.102;2023-06-22T05:11:56;96363.66;;;20.16;78.75
71621;BME280;59471;42.254;23.102;2023-06-22T05:14:22;96358.84;;;20.24;78.57
71621;BME280;59471;42.254;23.102;2023-06-22T05:16:48;96354.75;;;20.40;77.16
71621;BME280;59471;42.254;23.102;2023-06-22T05:19:14;96363.06;;;20.62;75.41
71621;BME280;59471;42.254;23.102;2023-06-22T05:21:40;96368.00;;;20.58;74.36
71621;BME280;59471;42.254;23.102;2023-06-22T05:24:05;96355.75;;;20.39;76.92
71621;BME280;59471;42.254;23.102;2023-06-22T05:26:32;96361.94;;;20.81;75.01
71621;BME280;59471;42.254;23.102;2023-06-22T05:29:00;96366.91;;;20.78;74.26
71621;BME280;59471;42.254;23.102;2023-06-22T05:31:26;96362.28;;;20.85;74.09
71621;BME280;59471;42.254;23.102;2023-06-22T05:33:53;96361.56;;;20.78;74.07
71621;BME280;59471;42.254;23.102;2023-06-22T05:36:20;96357.06;;;20.78;73.65
71621;BME280;59471;42.254;23.102;2023-06-22T05:38:47;96367.16;;;20.88;73.64
71621;BME280;59471;42.254;23.102;2023-06-22T05:41:13;96356.84;;;20.92;72.98
71621;BME280;59471;42.254;23.102;2023-06-22T05:43:39;96354.44;;;21.14;73.42
71621;BME280;59471;42.254;23.102;2023-06-22T05:46:06;96358.00;;;21.31;72.10
71621;BME280;59471;42.254;23.102;2023-06-22T05:48:31;96361.41;;;21.38;72.65
71621;BME280;59471;42.254;23.102;2023-06-22T05:50:57;96359.75;;;21.61;73.39
71621;BME280;59471;42.254;23.102;2023-06-22T05:53:23;96364.34;;;21.77;74.00
71621;BME280;59471;42.254;23.102;2023-06-22T05:55:48;96367.63;;;21.79;72.57
71621;BME280;59471;42.254;23.102;2023-06-22T05:58:14;96367.53;;;22.03;73.95
71621;BME280;59471;42.254;23.102;2023-06-22T06:00:40;96370.72;;;22.28;72.42
71621;BME280;59471;42.254;23.102;2023-06-22T06:03:10;96370.25;;;22.31;71.71
71621;BME280;59471;42.254;23.102;2023-06-22T06:05:36;96377.72;;;22.06;71.42
71621;BME280;59471;42.254;23.102;2023-06-22T06:08:04;96375.88;;;22.18;70.88
71621;BME280;59471;42.254;23.102;2023-06-22T06:10:32;96387.91;;;22.32;70.50
71621;BME280;59471;42.254;23.102;2023-06-22T06:12:58;96382.63;;;22.66;70.81
71621;BME280;59471;42.254;23.102;2023-06-22T06:15:24;96385.38;;;22.88;71.27
71621;BME280;59471;42.254;23.102;2023-06-22T06:17:52;96387.44;;;22.98;69.43
71621;BME280;59471;42.254;23.102;2023-06-22T06:20:19;96378.78;;;23.24;68.02
71621;BME280;59471;42.254;23.102;2023-06-22T06:22:46;96380.09;;;23.05;70.12
71621;BME280;59471;42.254;23.102;2023-06-22T06:25:13;96383.94;;;22.80;69.71
71621;BME280;59471;42.254;23.102;2023-06-22T06:27:48;96376.78;;;22.12;71.10
71621;BME280;59471;42.254;23.102;2023-06-22T06:30:16;96380.72;;;22.21;72.30
71621;BME280;59471;42.254;23.102;2023-06-22T06:32:43;96372.13;;;22.76;70.72
71621;BME280;59471;42.254;23.102;2023-06-22T06:35:11;96370.06;;;23.12;68.82
71621;BME280;59471;42.254;23.102;2023-06-22T06:37:42;96370.91;;;23.34;69.18
71621;BME280;59471;42.254;23.102;2023-06-22T06:40:12;96355.63;;;23.13;68.57
71621;BME280;59471;42.254;23.102;2023-06-22T06:42:40;96361.13;;;23.23;68.91
71621;BME280;59471;42.254;23.102;2023-06-22T06:45:11;96359.34;;;23.46;67.64
71621;BME280;59471;42.254;23.102;2023-06-22T06:47:39;96352.16;;;23.68;66.46
71621;BME280;59471;42.254;23.102;2023-06-22T06:50:05;96357.69;;;23.62;66.52
71621;BME280;59471;42.254;23.102;2023-06-22T06:52:31;96356.13;;;23.66;66.56
71621;BME280;59471;42.254;23.102;2023-06-22T06:54:57;96350.06;;;23.53;66.14
71621;BME280;59471;42.254;23.102;2023-06-22T06:57:23;96354.41;;;23.76;65.62
71621;BME280;59471;42.254;23.102;2023-06-22T06:59:49;96355.16;;;23.94;66.81
71621;BME280;59471;42.254;23.102;2023-06-22T07:02:17;96350.41;;;24.01;64.38
71621;BME280;59471;42.254;23.102;2023-06-22T07:04:44;96351.31;;;24.34;62.21
71621;BME280;59471;42.254;23.102;2023-06-22T07:07:09;96337.59;;;24.25;64.45
71621;BME280;59471;42.254;23.102;2023-06-22T07:09:35;96344.53;;;24.48;63.20
71621;BME280;59471;42.254;23.102;2023-06-22T07:12:00;96346.34;;;24.69;63.68
71621;BME280;59471;42.254;23.102;2023-06-22T07:14:26;96349.22;;;24.95;64.07
71621;BME280;59471;42.254;23.102;2023-06-22T07:16:51;96346.50;;;25.22;61.51
71621;BME280;59471;42.254;23.102;2023-06-22T07:19:24;96344.03;;;25.15;61.91
71621;BME280;59471;42.254;23.102;2023-06-22T07:21:51;96350.16;;;25.53;59.71
71621;BME280;59471;42.254;23.102;2023-06-22T07:24:16;96340.56;;;25.57;60.97
71621;BME280;59471;42.254;23.102;2023-06-22T07:26:42;96343.25;;;25.62;60.83
71621;BME280;59471;42.254;23.102;2023-06-22T07:29:11;96346.53;;;25.75;61.39
71621;BME280;59471;42.254;23.102;2023-06-22T07:31:37;96341.63;;;25.61;61.24
71621;BME280;59471;42.254;23.102;2023-06-22T07:34:02;96340.69;;;25.88;59.81
71621;BME280;59471;42.254;23.102;2023-06-22T07:36:29;96336.00;;;25.63;61.70
71621;BME280;59471;42.254;23.102;2023-06-22T07:38:55;96330.25;;;25.39;62.09
71621;BME280;59471;42.254;23.102;2023-06-22T07:41:21;96329.41;;;25.33;64.74
71621;BME280;59471;42.254;23.102;2023-06-22T07:43:46;96329.31;;;25.60;63.10
71621;BME280;59471;42.254;23.102;2023-06-22T07:46:12;96328.44;;;25.50;61.41
71621;BME280;59471;42.254;23.102;2023-06-22T07:48:38;96330.28;;;25.44;62.65
71621;BME280;59471;42.254;23.102;2023-06-22T07:51:04;96325.47;;;25.46;60.99
71621;BME280;59471;42.254;23.102;2023-06-22T07:53:31;96322.47;;;25.37;61.62
71621;BME280;59471;42.254;23.102;2023-06-22T07:55:56;96321.03;;;25.72;61.08
71621;BME280;59471;42.254;23.102;2023-06-22T07:58:22;96324.06;;;25.91;60.90
71621;BME280;59471;42.254;23.102;2023-06-22T08:00:47;96324.25;;;25.74;61.51
71621;BME280;59471;42.254;23.102;2023-06-22T08:03:14;96323.38;;;26.21;61.17
71621;BME280;59471;42.254;23.102;2023-06-22T08:05:40;96332.19;;;26.01;60.51
71621;BME280;59471;42.254;23.102;2023-06-22T08:08:06;96328.34;;;25.82;61.83
71621;BME280;59471;42.254;23.102;2023-06-22T08:10:31;96328.72;;;26.11;60.32
71621;BME280;59471;42.254;23.102;2023-06-22T08:12:57;96329.81;;;26.20;61.95
71621;BME280;59471;42.254;23.102;2023-06-22T08:15:23;96328.50;;;26.38;62.56
71621;BME280;59471;42.254;23.102;2023-06-22T08:17:50;96315.66;;;26.61;63.99
71621;BME280;59471;42.254;23.102;2023-06-22T08:20:17;96319.19;;;26.81;61.14
71621;BME280;59471;42.254;23.102;2023-06-22T08:22:43;96319.44;;;26.90;62.36
71621;BME280;59471;42.254;23.102;2023-06-22T08:25:09;96326.41;;;27.01;61.25
71621;BME280;59471;42.254;23.102;2023-06-22T08:27:35;96322.66;;;26.92;62.63
71621;BME280;59471;42.254;23.102;2023-06-22T08:30:02;96313.00;;;26.96;62.08
71621;BME280;59471;42.254;23.102;2023-06-22T08:32:28;96308.16;;;26.63;62.42
71621;BME280;59471;42.254;23.102;2023-06-22T08:34:55;96304.38;;;26.79;63.09
71621;BME280;59471;42.254;23.102;2023-06-22T08:37:21;96305.47;;;27.09;63.28
71621;BME280;59471;42.254;23.102;2023-06-22T08:39:56;96299.00;;;27.04;61.59
71621;BME280;59471;42.254;23.102;2023-06-22T08:42:22;96302.22;;;27.07;62.09
71621;BME280;59471;42.254;23.102;2023-06-22T08:44:49;96290.66;;;27.37;61.57
71621;BME280;59471;42.254;23.102;2023-06-22T08:47:15;96287.06;;;27.62;62.23
71621;BME280;59471;42.254;23.102;2023-06-22T08:49:40;96286.19;;;27.82;61.00
71621;BME280;59471;42.254;23.102;2023-06-22T08:52:06;96280.59;;;27.58;61.42
71621;BME280;59471;42.254;23.102;2023-06-22T08:54:33;96279.59;;;27.43;60.28
71621;BME280;59471;42.254;23.102;2023-06-22T08:57:00;96274.78;;;27.30;62.46
71621;BME280;59471;42.254;23.102;2023-06-22T08:59:26;96283.94;;;27.09;61.28
71621;BME280;59471;42.254;23.102;2023-06-22T09:01:51;96280.28;;;27.75;60.43
71621;BME280;59471;42.254;23.102;2023-06-22T09:04:17;96276.16;;;28.03;60.28
71621;BME280;59471;42.254;23.102;2023-06-22T09:06:42;96269.50;;;28.29;57.17
71621;BME280;59471;42.254;23.102;2023-06-22T09:09:12;96258.16;;;28.32;57.71
71621;BME280;59471;42.254;23.102;2023-06-22T09:11:38;96271.81;;;28.07;53.14
71621;BME280;59471;42.254;23.102;2023-06-22T09:14:04;96269.03;;;28.22;51.66
71621;BME280;59471;42.254;23.102;2023-06-22T09:16:30;96269.13;;;28.46;48.04
71621;BME280;59471;42.254;23.102;2023-06-22T09:18:55;96254.28;;;28.54;47.45
71621;BME280;59471;42.254;23.102;2023-06-22T09:21:21;96256.34;;;28.62;48.19
71621;BME280;59471;42.254;23.102;2023-06-22T09:23:46;96264.63;;;29.00;47.59
71621;BME280;59471;42.254;23.102;2023-06-22T09:26:16;96266.94;;;29.17;46.07
71621;BME280;59471;42.254;23.102;2023-06-22T09:28:42;96259.13;;;29.15;47.06
71621;BME280;59471;42.254;23.102;2023-06-22T09:31:08;96264.97;;;29.22;42.80
71621;BME280;59471;42.254;23.102;2023-06-22T09:33:33;96253.41;;;28.87;44.29
71621;BME280;59471;42.254;23.102;2023-06-22T09:36:00;96257.69;;;28.94;44.35
71621;BME280;59471;42.254;23.102;2023-06-22T09:38:25;96251.66;;;29.07;43.38
71621;BME280;59471;42.254;23.102;2023-06-22T09:40:51;96244.50;;;28.63;43.61
71621;BME280;59471;42.254;23.102;2023-06-22T09:43:16;96243.22;;;28.84;44.81
71621;BME280;59471;42.254;23.102;2023-06-22T09:45:42;96242.75;;;29.06;44.32
71621;BME280;59471;42.254;23.102;2023-06-22T09:48:08;96246.53;;;29.53;46.17
71621;BME280;59471;42.254;23.102;2023-06-22T09:50:35;96250.16;;;29.44;46.56
71621;BME280;59471;42.254;23.102;2023-06-22T09:53:01;96247.28;;;29.59;44.89
71621;BME280;59471;42.254;23.102;2023-06-22T09:55:27;96241.56;;;29.66;43.63
71621;BME280;59471;42.254;23.102;2023-06-22T09:57:53;96243.78;;;29.64;42.00
71621;BME280;59471;42.254;23.102;2023-06-22T10:00:20;96253.41;;;29.46;42.87
71621;BME280;59471;42.254;23.102;2023-06-22T10:02:47;96244.91;;;29.58;43.56
71621;BME280;59471;42.254;23.102;2023-06-22T10:05:13;96247.88;;;29.56;43.40
71621;BME280;59471;42.254;23.102;2023-06-22T10:07:39;96243.91;;;29.72;42.90
71621;BME280;59471;42.254;23.102;2023-06-22T10:10:08;96243.28;;;29.81;42.90
71621;BME280;59471;42.254;23.102;2023-06-22T10:12:34;96248.31;;;30.06;42.89
71621;BME280;59471;42.254;23.102;2023-06-22T10:15:00;96247.72;;;29.90;42.97
71621;BME280;59471;42.254;23.102;2023-06-22T10:17:25;96244.03;;;30.05;41.58
71621;BME280;59471;42.254;23.102;2023-06-22T10:19:51;96242.28;;;30.14;41.69
71621;BME280;59471;42.254;23.102;2023-06-22T10:22:16;96243.72;;;30.07;42.99
71621;BME280;59471;42.254;23.102;2023-06-22T10:24:43;96232.25;;;29.96;41.38
71621;BME280;59471;42.254;23.102;2023-06-22T10:27:13;96229.84;;;30.13;42.24
71621;BME280;59471;42.254;23.102;2023-06-22T10:29:38;96212.63;;;30.09;43.09
71621;BME280;59471;42.254;23.102;2023-06-22T10:32:04;96224.03;;;30.58;43.85
71621;BME280;59471;42.254;23.102;2023-06-22T10:34:31;96217.41;;;30.50;43.16
71621;BME280;59471;42.254;23.102;2023-06-22T10:36:56;96216.94;;;30.29;40.92
71621;BME280;59471;42.254;23.102;2023-06-22T10:39:22;96212.63;;;30.09;44.03
71621;BME280;59471;42.254;23.102;2023-06-22T10:41:47;96216.72;;;30.25;42.63
71621;BME280;59471;42.254;23.102;2023-06-22T10:44:12;96218.41;;;30.54;42.06
71621;BME280;59471;42.254;23.102;2023-06-22T10:46:38;96214.47;;;30.65;43.35
71621;BME280;59471;42.254;23.102;2023-06-22T10:49:04;96207.19;;;30.47;43.30
71621;BME280;59471;42.254;23.102;2023-06-22T10:51:29;96204.84;;;30.59;41.82
71621;BME280;59471;42.254;23.102;2023-06-22T10:53:56;96209.06;;;30.65;41.47
71621;BME280;59471;42.254;23.102;2023-06-22T10:56:22;96208.13;;;30.89;40.75
71621;BME280;59471;42.254;23.102;2023-06-22T10:58:47;96207.13;;;30.85;43.39
71621;BME280;59471;42.254;23.102;2023-06-22T11:01:13;96201.44;;;31.00;43.34
71621;BME280;59471;42.254;23.102;2023-06-22T11:03:39;96204.72;;;30.83;42.10
71621;BME280;59471;42.254;23.102;2023-06-22T11:06:05;96193.31;;;31.00;41.78
71621;BME280;59471;42.254;23.102;2023-06-22T11:08:30;96201.31;;;31.05;43.19
71621;BME280;59471;42.254;23.102;2023-06-22T11:10:56;96197.22;;;31.22;42.83
71621;BME280;59471;42.254;23.102;2023-06-22T11:13:21;96188.91;;;31.04;41.78
71621;BME280;59471;42.254;23.102;2023-06-22T11:15:47;96199.34;;;31.25;43.44
71621;BME280;59471;42.254;23.102;2023-06-22T11:18:12;96187.72;;;31.10;43.31
71621;BME280;59471;42.254;23.102;2023-06-22T11:20:38;96189.00;;;31.13;42.09
71621;BME280;59471;42.254;23.102;2023-06-22T11:23:07;96190.72;;;31.23;43.32
71621;BME280;59471;42.254;23.102;2023-06-22T11:25:33;96193.16;;;31.38;44.24
71621;BME280;59471;42.254;23.102;2023-06-22T11:28:04;96183.09;;;31.66;44.01
71621;BME280;59471;42.254;23.102;2023-06-22T11:30:30;96184.53;;;31.50;41.99
71621;BME280;59471;42.254;23.102;2023-06-22T11:32:58;96174.16;;;31.52;43.09
71621;BME280;59471;42.254;23.102;2023-06-22T11:35:24;96183.66;;;31.77;43.31
71621;BME280;59471;42.254;23.102;2023-06-22T11:37:49;96184.72;;;31.53;44.10
71621;BME280;59471;42.254;23.102;2023-06-22T11:40:15;96188.72;;;31.42;42.44
71621;BME280;59471;42.254;23.102;2023-06-22T11:42:42;96179.91;;;31.36;41.70
71621;BME280;59471;42.254;23.102;2023-06-22T11:45:08;96175.66;;;31.30;43.54
71621;BME280;59471;42.254;23.102;2023-06-22T11:47:34;96177.06;;;31.55;39.07
71621;BME280;59471;42.254;23.102;2023-06-22T11:50:00;96178.09;;;31.59;42.67
71621;BME280;59471;42.254;23.102;2023-06-22T11:52:25;96181.41;;;32.06;41.63
71621;BME280;59471;42.254;23.102;2023-06-22T11:54:52;96178.66;;;31.70;40.75
71621;BME280;59471;42.254;23.102;2023-06-22T11:57:18;96176.25;;;31.69;41.30
71621;BME280;59471;42.254;23.102;2023-06-22T11:59:43;96173.66;;;31.63;42.87
71621;BME280;59471;42.254;23.102;2023-06-22T12:02:09;96168.00;;;31.88;42.68
71621;BME280;59471;42.254;23.102;2023-06-22T12:04:34;96161.72;;;31.65;41.18
71621;BME280;59471;42.254;23.102;2023-06-22T12:07:00;96160.44;;;31.48;41.95
71621;BME280;59471;42.254;23.102;2023-06-22T12:09:26;96147.13;;;31.38;43.26
71621;BME280;59471;42.254;23.102;2023-06-22T12:11:51;96155.75;;;31.90;41.26
71621;BME280;59471;42.254;23.102;2023-06-22T12:14:17;96150.88;;;31.78;42.35
71621;BME280;59471;42.254;23.102;2023-06-22T12:16:42;96152.22;;;31.53;40.78
71621;BME280;59471;42.254;23.102;2023-06-22T12:19:10;96139.16;;;31.55;41.90
71621;BME280;59471;42.254;23.102;2023-06-22T12:21:37;96137.50;;;31.82;42.22
71621;BME280;59471;42.254;23.102;2023-06-22T12:24:03;96147.47;;;31.73;40.31
71621;BME280;59471;42.254;23.102;2023-06-22T12:26:28;96132.41;;;31.44;43.01
71621;BME280;59471;42.254;23.102;2023-06-22T12:28:54;96126.47;;;31.92;40.84
71621;BME280;59471;42.254;23.102;2023-06-22T12:31:19;96123.25;;;31.90;42.08
71621;BME280;59471;42.254;23.102;2023-06-22T12:33:45;96129.47;;;32.36;40.61
71621;BME280;59471;42.254;23.102;2023-06-22T12:36:10;96139.38;;;32.18;39.35
71621;BME280;59471;42.254;23.102;2023-06-22T12:38:36;96136.28;;;31.88;41.17
71621;BME280;59471;42.254;23.102;2023-06-22T12:41:01;96138.50;;;31.86;41.80
71621;BME280;59471;42.254;23.102;2023-06-22T12:43:27;96135.63;;;32.05;40.08
71621;BME280;59471;42.254;23.102;2023-06-22T12:45:53;96134.09;;;31.90;38.81
71621;BME280;59471;42.254;23.102;2023-06-22T12:48:18;96127.66;;;31.86;38.25
71621;BME280;59471;42.254;23.102;2023-06-22T12:50:44;96125.34;;;32.16;38.63
71621;BME280;59471;42.254;23.102;2023-06-22T12:53:09;96119.59;;;32.40;37.91
71621;BME280;59471;42.254;23.102;2023-06-22T12:55:35;96117.84;;;32.13;37.58